Moose Heights, Canada
Current Conditions -  °F | °C
As of 8:00 PM on Tuesday 21 Oct 2014 (Local Time) from CYXS Reporting Station
Broken Clouds Broken Clouds  
Wind Chill: 55°   Ceiling: 13000
Heat Index: 55°   Visibility: 9mi
Dew Point: 34°   Wind: 18mph
Humidity: 44%   Direction: 170°S
Pressure: 29.53"   Gusts: NA
Location:  53.09°N, 122.49°W
Report Text: CYXS 220300Z AUTO 17016KT 9SM SCT100 BKN130 13/01 A2953 RMK SLP016 DENSITY ALT 3000FT
Loading
Personal Weather Stations






























Interactive Weather Map
Tropical Storm Tracking
New forecast layout! Learn more

10-Day Weather Forecast

Advertisements
Track Severe Weather on mobile